createdAt,value
2022-08-26T00:01:04.411Z,97644.96
2022-08-26T00:03:32.612Z,97641.65
2022-08-26T00:06:00.832Z,97638.98
2022-08-26T00:08:29.376Z,97637.86
2022-08-26T00:10:57.870Z,97640.59
2022-08-26T00:13:29.307Z,97637.64
2022-08-26T00:15:58.045Z,97639.32
2022-08-26T00:18:27.097Z,97639.88
2022-08-26T00:20:57.019Z,97637.63
2022-08-26T00:23:25.766Z,97633.62
2022-08-26T00:25:57.839Z,97635.72
2022-08-26T00:28:27.114Z,97636.75
2022-08-26T00:30:55.438Z,97632.15
2022-08-26T00:33:24.182Z,97629.27
2022-08-26T00:35:52.401Z,97627.89
2022-08-26T00:38:22.251Z,97625.83
2022-08-26T00:40:55.680Z,97625.58
2022-08-26T00:43:26.526Z,97623.62
2022-08-26T00:46:31.684Z,97625.59
2022-08-26T00:49:11.828Z,97625.40
2022-08-26T00:51:51.379Z,97627.05
2022-08-26T00:54:26.927Z,97631.14
2022-08-26T00:57:08.761Z,97631.64
2022-08-26T00:59:49.353Z,97630.83
2022-08-26T01:02:20.753Z,97630.43
2022-08-26T01:04:59.085Z,97632.83
2022-08-26T01:07:31.339Z,97633.39
2022-08-26T01:10:03.104Z,97634.61
2022-08-26T01:12:40.161Z,97637.55
2022-08-26T01:15:14.221Z,97638.16
2022-08-26T01:17:42.620Z,97639.00
2022-08-26T01:20:30.420Z,97637.55
2022-08-26T01:23:05.344Z,97633.44
2022-08-26T01:25:39.512Z,97636.75
2022-08-26T01:28:14.340Z,97636.55
2022-08-26T01:30:45.172Z,97634.41
2022-08-26T01:33:19.299Z,97632.20
2022-08-26T01:35:48.160Z,97638.00
2022-08-26T01:38:18.376Z,97635.19
2022-08-26T01:40:47.140Z,97634.77
2022-08-26T01:43:21.533Z,97634.75
2022-08-26T01:45:51.849Z,97635.13
2022-08-26T01:48:25.582Z,97636.23
2022-08-26T01:50:54.335Z,97634.98
2022-08-26T01:53:24.544Z,97637.09
2022-08-26T01:56:02.888Z,97637.06
2022-08-26T01:58:47.218Z,97637.02
2022-08-26T02:01:16.440Z,97638.65
2022-08-26T02:04:08.287Z,97637.95
2022-08-26T02:06:38.959Z,97637.11
2022-08-26T02:09:08.952Z,97640.95
2022-08-26T02:11:38.374Z,97639.05
2022-08-26T02:14:17.149Z,97639.58
2022-08-26T02:16:50.447Z,97638.67
2022-08-26T02:19:29.495Z,97638.97
2022-08-26T02:22:03.300Z,97643.13
2022-08-26T02:24:57.996Z,97646.22
2022-08-26T02:27:33.918Z,97645.64
2022-08-26T02:30:17.114Z,97644.24
2022-08-26T02:32:46.503Z,97650.94
2022-08-26T02:35:20.551Z,97649.20
2022-08-26T02:37:51.017Z,97649.98
2022-08-26T02:40:28.276Z,97645.52
2022-08-26T02:42:57.552Z,97650.06
2022-08-26T02:45:28.597Z,97648.55
2022-08-26T02:47:58.600Z,97648.30
2022-08-26T02:50:28.948Z,97646.76
2022-08-26T02:52:57.139Z,97643.42
2022-08-26T02:55:26.393Z,97642.83
2022-08-26T02:57:54.645Z,97643.44
2022-08-26T03:00:23.829Z,97644.55
2022-08-26T03:02:52.129Z,97641.81
2022-08-26T03:05:22.156Z,97645.05
2022-08-26T03:07:53.009Z,97648.38
2022-08-26T03:10:22.605Z,97646.03
2022-08-26T03:12:50.846Z,97648.89
2022-08-26T03:15:20.920Z,97650.64
2022-08-26T03:17:50.363Z,97650.65
2022-08-26T03:20:19.024Z,97654.39
2022-08-26T03:22:47.868Z,97652.77
2022-08-26T03:25:18.313Z,97657.03
2022-08-26T03:27:46.851Z,97654.58
2022-08-26T03:30:34.718Z,97653.52
2022-08-26T03:33:03.676Z,97653.17
2022-08-26T03:35:33.964Z,97649.02
2022-08-26T03:38:03.452Z,97649.83
2022-08-26T03:40:33.911Z,97647.05
2022-08-26T03:43:04.618Z,97650.98
2022-08-26T03:45:34.017Z,97649.84
2022-08-26T03:48:04.531Z,97649.84
2022-08-26T03:50:35.843Z,97650.48
2022-08-26T03:53:04.509Z,97650.95
2022-08-26T03:55:35.684Z,97656.67
2022-08-26T03:58:03.904Z,97656.70
2022-08-26T04:00:32.512Z,97658.34
2022-08-26T04:03:02.754Z,97655.24
2022-08-26T04:05:31.420Z,97658.96
2022-08-26T04:08:00.072Z,97655.48
2022-08-26T04:10:29.528Z,97655.48
2022-08-26T04:12:59.552Z,97654.93
2022-08-26T04:15:28.167Z,97654.27
2022-08-26T04:17:57.245Z,97651.89
2022-08-26T04:20:27.496Z,97650.63
2022-08-26T04:22:56.511Z,97650.30
2022-08-26T04:25:25.392Z,97652.11
2022-08-26T04:27:53.988Z,97652.27
2022-08-26T04:30:22.965Z,97653.68
2022-08-26T04:32:52.576Z,97651.40
2022-08-26T04:35:25.781Z,97647.92
2022-08-26T04:37:54.497Z,97649.02
2022-08-26T04:40:24.080Z,97649.80
2022-08-26T04:42:54.958Z,97650.14
2022-08-26T04:45:24.643Z,97647.55
2022-08-26T04:47:56.498Z,97643.98
2022-08-26T04:50:26.616Z,97648.41
2022-08-26T04:52:55.498Z,97643.86
2022-08-26T04:55:38.221Z,97644.35
2022-08-26T04:58:11.049Z,97641.58
2022-08-26T05:00:39.317Z,97647.01
2022-08-26T05:03:10.567Z,97645.91
2022-08-26T05:05:43.923Z,97646.28
2022-08-26T05:08:14.972Z,97646.99
2022-08-26T05:10:48.499Z,97645.09
2022-08-26T05:13:20.623Z,97646.92
2022-08-26T05:15:49.464Z,97639.71
2022-08-26T05:18:21.369Z,97641.54
2022-08-26T05:20:54.842Z,97640.55
2022-08-26T05:23:24.783Z,97642.08
2022-08-26T05:25:59.149Z,97644.95
2022-08-26T05:28:29.998Z,97640.52
2022-08-26T05:30:58.238Z,97645.93
2022-08-26T05:33:26.687Z,97645.77
2022-08-26T05:35:55.151Z,97644.21
2022-08-26T05:38:23.752Z,97644.61
2022-08-26T05:40:53.308Z,97640.96
2022-08-26T05:43:21.652Z,97644.44
2022-08-26T05:45:50.609Z,97647.56
2022-08-26T05:48:22.704Z,97646.55
2022-08-26T05:50:53.498Z,97647.02
2022-08-26T05:53:25.926Z,97644.06
2022-08-26T05:55:56.271Z,97644.66
2022-08-26T05:58:27.182Z,97643.30
2022-08-26T06:01:04.652Z,97641.98
2022-08-26T06:03:36.077Z,97642.90
2022-08-26T06:06:08.300Z,97640.02
2022-08-26T06:08:37.790Z,97637.64
2022-08-26T06:11:12.729Z,97636.93
2022-08-26T06:13:47.228Z,97635.08
2022-08-26T06:16:20.422Z,97634.64
2022-08-26T06:18:50.709Z,97634.83
2022-08-26T06:21:28.852Z,97636.50
2022-08-26T06:24:19.533Z,97634.95
2022-08-26T06:26:56.124Z,97626.66
2022-08-26T06:29:28.001Z,97628.88
2022-08-26T06:31:58.150Z,97623.15
2022-08-26T06:34:30.638Z,97618.05
2022-08-26T06:37:02.776Z,97621.61
2022-08-26T06:39:32.113Z,97626.61
2022-08-26T06:42:02.709Z,97629.01
2022-08-26T06:44:35.121Z,97631.62
2022-08-26T06:47:03.702Z,97633.65
2022-08-26T06:49:31.897Z,97633.71
2022-08-26T06:52:00.114Z,97631.87
2022-08-26T06:54:31.815Z,97632.40
2022-08-26T06:57:01.313Z,97631.00
2022-08-26T06:59:31.347Z,97631.00
2022-08-26T07:01:59.721Z,97633.79
2022-08-26T07:04:28.916Z,97631.61
2022-08-26T07:06:57.439Z,97634.01
2022-08-26T07:09:30.396Z,97628.10
2022-08-26T07:11:59.505Z,97620.32
2022-08-26T07:14:27.933Z,97617.79
2022-08-26T07:16:56.160Z,97613.85
2022-08-26T07:19:30.146Z,97610.08
2022-08-26T07:22:04.063Z,97604.25
2022-08-26T07:24:35.867Z,97606.27
2022-08-26T07:27:08.636Z,97602.38
2022-08-26T07:29:39.583Z,97599.09
2022-08-26T07:32:09.859Z,97597.59
2022-08-26T07:34:39.410Z,97597.00
2022-08-26T07:37:10.232Z,97592.85
2022-08-26T07:39:41.624Z,97592.91
2022-08-26T07:42:14.823Z,97591.07
2022-08-26T07:44:45.315Z,97589.19
2022-08-26T07:47:25.689Z,97586.02
2022-08-26T07:49:57.911Z,97589.97
2022-08-26T07:52:29.343Z,97584.92
2022-08-26T07:55:00.964Z,97583.25
2022-08-26T07:57:29.680Z,97581.03
2022-08-26T07:59:59.061Z,97580.24
2022-08-26T08:02:29.014Z,97581.59
2022-08-26T08:04:58.546Z,97579.01
2022-08-26T08:07:44.782Z,97572.36
2022-08-26T08:10:22.548Z,97569.60
2022-08-26T08:12:54.052Z,97565.54
2022-08-26T08:15:27.903Z,97561.31
2022-08-26T08:18:00.227Z,97560.54
2022-08-26T08:20:30.069Z,97554.22
2022-08-26T08:22:58.537Z,97551.39
2022-08-26T08:25:27.112Z,97547.11
2022-08-26T08:27:55.318Z,97549.71
2022-08-26T08:30:25.346Z,97545.70
2022-08-26T08:32:54.173Z,97543.88
2022-08-26T08:35:24.150Z,97543.51
2022-08-26T08:37:57.240Z,97542.89
2022-08-26T08:40:27.166Z,97538.39
2022-08-26T08:43:37.657Z,97534.09
2022-08-26T08:46:12.971Z,97530.51
2022-08-26T08:48:46.677Z,97529.08
2022-08-26T08:51:48.426Z,97525.45
2022-08-26T08:54:16.741Z,97519.73
2022-08-26T08:56:55.532Z,97518.55
2022-08-26T08:59:39.941Z,97518.33
2022-08-26T09:02:47.974Z,97515.76
2022-08-26T09:05:48.784Z,97518.91
2022-08-26T09:08:27.457Z,97514.98
2022-08-26T09:11:00.948Z,97510.98
2022-08-26T09:13:31.700Z,97508.53
2022-08-26T09:16:00.058Z,97513.11
2022-08-26T09:19:40.501Z,97507.93
2022-08-26T09:22:09.924Z,97500.98
2022-08-26T09:24:41.999Z,97500.22
2022-08-26T09:27:50.763Z,97495.33
2022-08-26T09:30:33.197Z,97493.53
2022-08-26T09:33:11.287Z,97492.52
2022-08-26T09:35:45.678Z,97493.09
2022-08-26T09:38:34.269Z,97486.62
2022-08-26T09:41:08.456Z,97481.63
2022-08-26T09:43:37.625Z,97476.73
2022-08-26T09:46:19.521Z,97474.63
2022-08-26T09:48:48.516Z,97472.91
2022-08-26T09:51:24.877Z,97470.02
2022-08-26T09:53:57.752Z,97472.74
2022-08-26T09:56:35.947Z,97474.77
2022-08-26T09:59:11.126Z,97472.19
2022-08-26T10:01:44.950Z,97466.72
2022-08-26T10:04:26.727Z,97461.20
2022-08-26T10:06:59.314Z,97462.30
2022-08-26T10:09:29.919Z,97465.27
2022-08-26T10:12:04.642Z,97465.69
2022-08-26T10:14:39.932Z,97461.05
2022-08-26T10:17:30.775Z,97456.09
2022-08-26T10:20:23.379Z,97457.26
2022-08-26T10:23:26.048Z,97450.05
2022-08-26T10:26:07.783Z,97450.52
2022-08-26T10:28:50.016Z,97445.45
2022-08-26T10:31:52.018Z,97441.80
2022-08-26T10:34:21.190Z,97445.47
2022-08-26T10:37:15.741Z,97441.70
2022-08-26T10:39:53.074Z,97442.79
2022-08-26T10:42:42.924Z,97444.05
2022-08-26T10:45:16.857Z,97440.57
2022-08-26T10:47:59.916Z,97438.42
2022-08-26T10:50:39.351Z,97435.27
2022-08-26T10:53:27.011Z,97435.04
2022-08-26T10:56:15.670Z,97430.73
2022-08-26T10:59:10.224Z,97423.73
2022-08-26T11:02:25.359Z,97419.40
2022-08-26T11:05:06.573Z,97415.31
2022-08-26T11:07:52.598Z,97415.83
2022-08-26T11:10:23.051Z,97415.79
2022-08-26T11:13:01.448Z,97418.67
2022-08-26T11:15:29.680Z,97411.72
2022-08-26T11:18:11.017Z,97409.23
2022-08-26T11:20:41.916Z,97407.51
2022-08-26T11:23:13.360Z,97408.43
2022-08-26T11:25:57.138Z,97409.02
2022-08-26T11:28:39.852Z,97407.21
2022-08-26T11:31:38.753Z,97409.13
2022-08-26T11:34:13.537Z,97408.69
2022-08-26T11:36:47.826Z,97408.06
2022-08-26T11:39:54.070Z,97408.19
2022-08-26T11:42:45.980Z,97404.52
2022-08-26T11:45:24.682Z,97401.74
2022-08-26T11:47:55.024Z,97403.45
2022-08-26T11:50:28.102Z,97396.94
2022-08-26T11:53:06.330Z,97391.87
2022-08-26T11:55:43.428Z,97390.72
2022-08-26T11:58:15.042Z,97387.65
2022-08-26T12:00:46.236Z,97385.78
2022-08-26T12:03:36.081Z,97381.33
2022-08-26T12:06:38.980Z,97378.77
2022-08-26T12:09:26.432Z,97374.64
2022-08-26T12:12:12.344Z,97374.42
2022-08-26T12:14:41.817Z,97377.04
2022-08-26T12:17:19.384Z,97372.02
2022-08-26T12:19:50.731Z,97374.71
2022-08-26T12:22:24.836Z,97373.81
2022-08-26T12:24:59.995Z,97371.66
2022-08-26T12:27:41.675Z,97368.67
2022-08-26T12:30:17.999Z,97364.85
2022-08-26T12:33:03.703Z,97362.17
2022-08-26T12:35:56.431Z,97358.52
2022-08-26T12:38:27.537Z,97356.83
2022-08-26T12:40:57.081Z,97353.55
2022-08-26T12:43:47.474Z,97358.21
2022-08-26T12:46:27.701Z,97356.83
2022-08-26T12:49:01.103Z,97357.61
2022-08-26T12:51:32.961Z,97353.25
2022-08-26T12:54:06.784Z,97350.00
2022-08-26T12:56:39.521Z,97350.98
2022-08-26T12:59:19.913Z,97350.41
2022-08-26T13:01:49.510Z,97346.08
2022-08-26T13:04:43.960Z,97347.98
2022-08-26T13:07:26.437Z,97345.05
2022-08-26T13:09:58.481Z,97344.18
2022-08-26T13:12:32.817Z,97345.52
2022-08-26T13:15:04.911Z,97342.20
2022-08-26T13:17:35.954Z,97337.59
2022-08-26T13:20:04.989Z,97339.81
2022-08-26T13:22:34.283Z,97342.81
2022-08-26T13:25:02.537Z,97343.73
2022-08-26T13:27:30.745Z,97339.29
2022-08-26T13:29:59.890Z,97336.73
2022-08-26T13:32:28.982Z,97335.08
2022-08-26T13:34:57.785Z,97333.99
2022-08-26T13:37:34.114Z,97329.36
2022-08-26T13:40:07.989Z,97331.88
2022-08-26T13:42:36.268Z,97326.50
2022-08-26T13:45:05.321Z,97327.14
2022-08-26T13:47:33.558Z,97329.09
2022-08-26T13:50:01.932Z,97328.90
2022-08-26T13:52:31.206Z,97326.05
2022-08-26T13:55:00.830Z,97327.98
2022-08-26T13:57:30.484Z,97328.28
2022-08-26T13:59:59.658Z,97329.89
2022-08-26T14:02:28.695Z,97330.39
2022-08-26T14:04:56.905Z,97325.23
2022-08-26T14:07:25.167Z,97319.86
2022-08-26T14:09:53.465Z,97320.40
2022-08-26T14:12:21.708Z,97320.45
2022-08-26T14:14:50.367Z,97324.95
2022-08-26T14:17:24.515Z,97326.05
2022-08-26T14:19:53.901Z,97319.83
2022-08-26T14:22:22.652Z,97315.95
2022-08-26T14:24:51.101Z,97317.44
2022-08-26T14:27:19.450Z,97316.58
2022-08-26T14:29:48.019Z,97313.11
2022-08-26T14:32:26.193Z,97309.70
2022-08-26T14:34:55.145Z,97307.92
2022-08-26T14:37:24.067Z,97304.78
2022-08-26T14:39:52.549Z,97303.97
2022-08-26T14:42:31.350Z,97302.86
2022-08-26T14:45:02.847Z,97301.73
2022-08-26T14:47:31.138Z,97300.39
2022-08-26T14:49:59.329Z,97299.77
2022-08-26T14:52:27.815Z,97297.79
2022-08-26T14:54:56.018Z,97299.58
2022-08-26T14:57:24.227Z,97295.14
2022-08-26T14:59:52.429Z,97293.23
2022-08-26T15:02:33.809Z,97296.20
2022-08-26T15:05:04.149Z,97294.16
2022-08-26T15:07:32.718Z,97292.59
2022-08-26T15:10:01.561Z,97291.83
2022-08-26T15:12:29.833Z,97299.62
2022-08-26T15:14:58.041Z,97298.93
2022-08-26T15:17:26.674Z,97294.27
2022-08-26T15:19:55.222Z,97293.29
2022-08-26T15:22:23.883Z,97296.08
2022-08-26T15:24:54.758Z,97290.40
2022-08-26T15:27:22.989Z,97291.83
2022-08-26T15:29:51.868Z,97291.41
2022-08-26T15:32:20.813Z,97289.36
2022-08-26T15:34:50.848Z,97287.59
2022-08-26T15:37:19.326Z,97283.52
2022-08-26T15:39:47.964Z,97287.16
2022-08-26T15:42:16.174Z,97286.58
2022-08-26T15:44:45.694Z,97285.48
2022-08-26T15:47:13.870Z,97284.20
2022-08-26T15:49:42.143Z,97283.33
2022-08-26T15:52:10.816Z,97284.45
2022-08-26T15:54:39.721Z,97281.02
2022-08-26T15:57:11.448Z,97280.27
2022-08-26T15:59:40.799Z,97283.71
2022-08-26T16:02:09.679Z,97283.53
2022-08-26T16:04:38.045Z,97281.47
2022-08-26T16:07:06.270Z,97277.45
2022-08-26T16:09:34.676Z,97277.04
2022-08-26T16:12:03.375Z,97274.13
2022-08-26T16:14:31.683Z,97272.45
2022-08-26T16:16:59.886Z,97273.14
2022-08-26T16:19:28.065Z,97273.66
2022-08-26T16:21:56.287Z,97272.77
2022-08-26T16:24:29.724Z,97272.56
2022-08-26T16:26:58.921Z,97272.34
2022-08-26T16:29:27.514Z,97274.85
2022-08-26T16:31:55.798Z,97273.70
2022-08-26T16:34:24.577Z,97270.46
2022-08-26T16:36:53.072Z,97273.37
2022-08-26T16:39:21.428Z,97274.20
2022-08-26T16:41:49.581Z,97275.25
2022-08-26T16:44:18.225Z,97278.20
2022-08-26T16:46:46.551Z,97277.17
2022-08-26T16:49:15.226Z,97272.83
2022-08-26T16:51:43.662Z,97272.59
2022-08-26T16:54:11.880Z,97275.80
2022-08-26T16:56:40.365Z,97273.92
2022-08-26T16:59:11.615Z,97275.27
2022-08-26T17:01:40.195Z,97273.37
2022-08-26T17:04:08.768Z,97274.85
2022-08-26T17:06:37.065Z,97275.73
2022-08-26T17:09:09.003Z,97279.27
2022-08-26T17:11:37.652Z,97280.59
2022-08-26T17:14:06.600Z,97284.38
2022-08-26T17:16:34.908Z,97286.63
2022-08-26T17:19:05.005Z,97289.39
2022-08-26T17:21:36.611Z,97295.20
2022-08-26T17:24:06.911Z,97293.20
2022-08-26T17:26:37.123Z,97294.17
2022-08-26T17:29:07.426Z,97297.11
2022-08-26T17:31:35.696Z,97300.05
2022-08-26T17:34:05.193Z,97299.60
2022-08-26T17:36:33.543Z,97304.34
2022-08-26T17:39:02.105Z,97304.70
2022-08-26T17:41:30.342Z,97302.11
2022-08-26T17:43:58.607Z,97303.02
2022-08-26T17:46:26.974Z,97305.70
2022-08-26T17:48:55.270Z,97306.63
2022-08-26T17:51:24.015Z,97310.80
2022-08-26T17:53:52.555Z,97313.44
2022-08-26T17:56:25.551Z,97313.83
2022-08-26T17:58:57.731Z,97314.02
2022-08-26T18:01:31.143Z,97312.11
2022-08-26T18:04:00.876Z,97313.41
2022-08-26T18:06:30.845Z,97315.95
2022-08-26T18:09:00.746Z,97319.45
2022-08-26T18:11:32.151Z,97315.30
2022-08-26T18:14:00.593Z,97315.04
2022-08-26T18:16:31.740Z,97322.84
2022-08-26T18:19:01.135Z,97319.64
2022-08-26T18:21:29.475Z,97322.42
2022-08-26T18:23:57.702Z,97324.98
2022-08-26T18:26:31.398Z,97321.27
2022-08-26T18:29:00.900Z,97324.58
2022-08-26T18:31:30.490Z,97325.36
2022-08-26T18:34:01.223Z,97326.65
2022-08-26T18:36:36.589Z,97321.48
2022-08-26T18:39:08.357Z,97321.43
2022-08-26T18:41:46.232Z,97321.91
2022-08-26T18:44:17.981Z,97322.77
2022-08-26T18:46:47.148Z,97327.22
2022-08-26T18:49:18.150Z,97330.22
2022-08-26T18:51:47.869Z,97327.68
2022-08-26T18:54:17.272Z,97326.80
2022-08-26T18:56:45.938Z,97325.75
2022-08-26T18:59:14.882Z,97326.95
2022-08-26T19:01:45.334Z,97328.40
2022-08-26T19:04:15.464Z,97331.64
2022-08-26T19:06:48.572Z,97333.20
2022-08-26T19:09:19.073Z,97332.06
2022-08-26T19:11:50.085Z,97335.05
2022-08-26T19:14:19.085Z,97333.23
2022-08-26T19:16:49.996Z,97335.58
2022-08-26T19:19:23.904Z,97333.80
2022-08-26T19:21:52.792Z,97333.74
2022-08-26T19:24:23.229Z,97336.27
2022-08-26T19:26:59.744Z,97336.07
2022-08-26T19:29:34.932Z,97334.30
2022-08-26T19:32:04.655Z,97333.05
2022-08-26T19:34:34.188Z,97333.02
2022-08-26T19:37:02.555Z,97333.27
2022-08-26T19:39:30.859Z,97337.57
2022-08-26T19:42:00.419Z,97338.46
2022-08-26T19:44:47.279Z,97339.05
2022-08-26T19:47:15.754Z,97337.25
2022-08-26T19:49:44.823Z,97341.90
2022-08-26T19:52:14.198Z,97344.25
2022-08-26T19:54:42.511Z,97346.05
2022-08-26T19:57:11.249Z,97346.73
2022-08-26T19:59:40.377Z,97346.23
2022-08-26T20:02:11.083Z,97345.79
2022-08-26T20:04:41.723Z,97347.23
2022-08-26T20:07:12.926Z,97348.48
2022-08-26T20:09:43.601Z,97350.98
2022-08-26T20:12:12.478Z,97351.41
2022-08-26T20:14:40.911Z,97351.13
2022-08-26T20:17:09.525Z,97345.84
2022-08-26T20:19:56.461Z,97352.18
2022-08-26T20:22:25.780Z,97354.56
2022-08-26T20:24:54.042Z,97360.52
2022-08-26T20:27:27.684Z,97362.14
2022-08-26T20:30:10.109Z,97358.74
2022-08-26T20:32:39.996Z,97360.48
2022-08-26T20:35:12.404Z,97366.54
2022-08-26T20:37:41.535Z,97363.46
2022-08-26T20:40:13.352Z,97362.63
2022-08-26T20:42:41.686Z,97361.27
2022-08-26T20:45:10.777Z,97363.91
2022-08-26T20:47:38.975Z,97362.50
2022-08-26T20:50:08.680Z,97369.84
2022-08-26T20:52:37.022Z,97368.23
2022-08-26T20:55:06.001Z,97371.45
2022-08-26T20:57:34.412Z,97369.01
2022-08-26T21:00:03.722Z,97364.89
2022-08-26T21:02:31.942Z,97364.73
2022-08-26T21:05:05.302Z,97364.86
2022-08-26T21:07:34.809Z,97364.79
2022-08-26T21:10:05.503Z,97365.08
2022-08-26T21:12:38.421Z,97368.83
2022-08-26T21:15:16.129Z,97373.41
2022-08-26T21:17:47.700Z,97373.68
2022-08-26T21:20:30.493Z,97379.91
2022-08-26T21:23:04.079Z,97379.87
2022-08-26T21:25:47.419Z,97377.71
2022-08-26T21:28:18.627Z,97377.91
2022-08-26T21:30:47.900Z,97381.87
2022-08-26T21:33:16.066Z,97378.04
2022-08-26T21:35:54.416Z,97374.66
2022-08-26T21:38:32.663Z,97374.00
2022-08-26T21:41:09.650Z,97374.05
2022-08-26T21:43:43.645Z,97373.25
2022-08-26T21:46:21.979Z,97375.04
2022-08-26T21:49:02.993Z,97375.87
2022-08-26T21:51:35.105Z,97375.14
2022-08-26T21:54:10.761Z,97379.92
2022-08-26T21:56:46.164Z,97385.52
2022-08-26T21:59:17.536Z,97391.65
2022-08-26T22:01:46.352Z,97392.06
2022-08-26T22:04:16.060Z,97396.14
2022-08-26T22:06:48.028Z,97391.80
2022-08-26T22:09:21.611Z,97390.03
2022-08-26T22:11:50.932Z,97386.41
2022-08-26T22:14:30.366Z,97387.94
2022-08-26T22:17:00.420Z,97391.84
2022-08-26T22:19:31.565Z,97385.53
2022-08-26T22:22:03.635Z,97384.21
2022-08-26T22:24:31.897Z,97388.13
2022-08-26T22:27:00.193Z,97385.04
2022-08-26T22:29:28.528Z,97383.60
2022-08-26T22:31:57.342Z,97384.93
2022-08-26T22:34:25.752Z,97384.35
2022-08-26T22:36:54.075Z,97382.23
2022-08-26T22:39:26.214Z,97376.95
2022-08-26T22:41:55.267Z,97377.73
2022-08-26T22:44:24.025Z,97374.75
2022-08-26T22:46:57.065Z,97380.02
2022-08-26T22:49:32.416Z,97382.96
2022-08-26T22:52:14.562Z,97383.35
2022-08-26T22:55:04.848Z,97386.09
2022-08-26T22:57:40.190Z,97385.67
2022-08-26T23:00:16.474Z,97389.56
2022-08-26T23:02:54.204Z,97390.04
2022-08-26T23:05:44.658Z,97382.69
2022-08-26T23:08:22.960Z,97386.02
2022-08-26T23:11:05.137Z,97391.77
2022-08-26T23:13:40.537Z,97396.11
2022-08-26T23:16:12.102Z,97396.63
2022-08-26T23:18:43.767Z,97397.14
2022-08-26T23:21:20.465Z,97395.05
2022-08-26T23:23:58.093Z,97394.58
2022-08-26T23:26:45.674Z,97396.07
2022-08-26T23:29:26.043Z,97398.79
2022-08-26T23:31:59.081Z,97393.81
2022-08-26T23:34:50.092Z,97391.14
2022-08-26T23:37:55.629Z,97387.52
2022-08-26T23:40:32.739Z,97383.58
2022-08-26T23:43:06.804Z,97385.33
2022-08-26T23:45:35.951Z,97384.48
2022-08-26T23:48:04.766Z,97385.83
2022-08-26T23:50:51.478Z,97383.35
2022-08-26T23:53:22.459Z,97379.88
2022-08-26T23:55:53.146Z,97378.95
2022-08-26T23:58:22.179Z,97376.25
